createdAt,value
2023-01-13T00:00:20.613Z,28.80
2023-01-13T00:05:44.569Z,42.90
2023-01-13T00:10:51.437Z,35.20
2023-01-13T00:16:05.249Z,30.10
2023-01-13T00:21:15.609Z,31.20
2023-01-13T00:26:26.842Z,33.10
2023-01-13T00:31:31.522Z,40.90
2023-01-13T00:36:35.407Z,39.60
2023-01-13T00:41:57.978Z,34.60
2023-01-13T00:47:02.246Z,36.10
2023-01-13T00:52:06.345Z,23.10
2023-01-13T00:57:10.338Z,30.60
2023-01-13T01:02:14.182Z,28.60
2023-01-13T01:07:18.181Z,33.30
2023-01-13T01:12:21.937Z,34.30
2023-01-13T01:17:25.832Z,27.60
2023-01-13T01:22:29.610Z,37.50
2023-01-13T01:27:33.348Z,26.50
2023-01-13T01:32:36.938Z,27.70
2023-01-13T01:37:40.664Z,24.10
2023-01-13T01:43:02.727Z,51.80
2023-01-13T01:48:08.488Z,30.20
2023-01-13T01:53:21.772Z,28.40
2023-01-13T01:58:42.624Z,29.50
2023-01-13T02:03:58.278Z,31.60
2023-01-13T02:09:02.203Z,30.10
2023-01-13T02:14:06.093Z,26.40
2023-01-13T02:19:21.833Z,36.50
2023-01-13T02:25:10.615Z,33.50
2023-01-13T02:30:48.322Z,29.80
2023-01-13T02:36:13.050Z,35.20
2023-01-13T02:41:51.417Z,28.80
2023-01-13T02:47:20.608Z,28.80
2023-01-13T02:52:36.617Z,35.50
2023-01-13T02:57:43.360Z,23.20
2023-01-13T03:02:49.289Z,29.20
2023-01-13T03:08:04.420Z,33.70
2023-01-13T03:14:04.679Z,62.00
2023-01-13T03:19:49.040Z,14.10
2023-01-13T03:25:07.809Z,18.30
2023-01-13T03:30:29.871Z,16.80
2023-01-13T03:35:44.475Z,15.60
2023-01-13T03:41:01.677Z,17.10
2023-01-13T03:46:27.275Z,23.00
2023-01-13T03:51:34.386Z,22.10
2023-01-13T03:56:59.909Z,17.20
2023-01-13T04:02:20.077Z,8.60
2023-01-13T04:07:48.422Z,21.20
2023-01-13T04:13:08.344Z,24.10
2023-01-13T04:18:26.504Z,18.00
2023-01-13T04:23:30.314Z,21.90
2023-01-13T04:28:35.411Z,16.60
2023-01-13T04:33:39.091Z,24.10
2023-01-13T04:38:42.906Z,22.60
2023-01-13T04:43:46.481Z,18.80
2023-01-13T04:48:50.227Z,59.10
2023-01-13T04:53:53.866Z,45.60
2023-01-13T04:58:57.459Z,26.90
2023-01-13T05:04:01.175Z,32.80
2023-01-13T05:09:04.963Z,28.70
2023-01-13T05:14:27.801Z,32.40
2023-01-13T05:19:35.384Z,31.00
2023-01-13T05:24:57.736Z,34.30
2023-01-13T05:30:02.070Z,30.80
2023-01-13T05:35:05.961Z,30.40
2023-01-13T05:40:31.888Z,50.30
2023-01-13T05:45:35.629Z,88.80
2023-01-13T05:50:40.264Z,89.60
2023-01-13T05:55:45.797Z,77.10
2023-01-13T06:00:50.490Z,48.70
2023-01-13T06:05:59.128Z,52.80
2023-01-13T06:11:03.453Z,44.30
2023-01-13T06:16:07.671Z,61.30
2023-01-13T06:21:11.678Z,45.60
2023-01-13T06:26:22.448Z,36.50
2023-01-13T06:31:29.102Z,36.30
2023-01-13T06:36:56.537Z,55.50
2023-01-13T06:42:18.932Z,47.00
2023-01-13T06:47:22.830Z,40.00
2023-01-13T06:52:27.902Z,53.10
2023-01-13T06:57:31.441Z,40.90
2023-01-13T07:02:35.128Z,30.60
2023-01-13T07:07:40.306Z,32.20
2023-01-13T07:13:03.024Z,33.90
2023-01-13T07:18:07.192Z,74.40
2023-01-13T07:23:11.083Z,87.70
2023-01-13T07:28:15.060Z,68.90
2023-01-13T07:33:19.271Z,43.40
2023-01-13T07:38:23.071Z,66.10
2023-01-13T07:43:33.118Z,113.10
2023-01-13T07:48:37.188Z,58.80
2023-01-13T07:53:41.502Z,58.60
2023-01-13T07:58:50.637Z,79.90
2023-01-13T08:03:56.697Z,30.90
2023-01-13T08:09:00.284Z,107.70
2023-01-13T08:14:04.242Z,44.30
2023-01-13T08:19:08.150Z,55.00
2023-01-13T08:24:12.218Z,35.70
2023-01-13T08:29:15.867Z,32.80
2023-01-13T08:34:19.833Z,42.90
2023-01-13T08:39:25.957Z,32.30
2023-01-13T08:44:32.713Z,26.30
2023-01-13T08:49:36.428Z,55.60
2023-01-13T08:54:40.923Z,42.80
2023-01-13T08:59:45.334Z,49.80
2023-01-13T09:04:50.322Z,114.70
2023-01-13T09:09:54.189Z,55.40
2023-01-13T09:14:58.648Z,59.80
2023-01-13T09:20:02.505Z,106.60
2023-01-13T09:25:07.460Z,175.00
2023-01-13T09:30:11.958Z,149.20
2023-01-13T09:35:17.757Z,81.10
2023-01-13T09:40:23.077Z,84.50
2023-01-13T09:45:38.169Z,99.30
2023-01-13T09:51:17.976Z,83.90
2023-01-13T10:01:42.356Z,104.60
2023-01-13T10:06:58.198Z,104.40
2023-01-13T10:12:22.180Z,101.50
2023-01-13T10:17:44.656Z,61.40
2023-01-13T10:23:17.007Z,141.00
2023-01-13T10:28:24.217Z,103.30
2023-01-13T10:33:29.046Z,92.50
2023-01-13T10:38:35.985Z,74.40
2023-01-13T10:43:40.249Z,97.20
2023-01-13T10:48:58.900Z,89.30
2023-01-13T10:54:25.560Z,110.70
2023-01-13T10:59:30.200Z,31.60
2023-01-13T11:04:39.978Z,86.80
2023-01-13T11:09:43.841Z,73.60
2023-01-13T11:14:49.058Z,142.40
2023-01-13T11:20:14.273Z,77.50
2023-01-13T11:25:45.968Z,85.10
2023-01-13T11:31:19.872Z,85.40
2023-01-13T11:36:33.018Z,90.50
2023-01-13T11:41:47.297Z,167.00
2023-01-13T11:46:54.230Z,68.10
2023-01-13T11:52:50.165Z,99.90
2023-01-13T11:58:19.416Z,82.80
2023-01-13T12:03:38.883Z,59.70
2023-01-13T12:09:05.432Z,71.80
2023-01-13T12:14:49.367Z,108.70
2023-01-13T12:19:53.134Z,201.40
2023-01-13T12:25:21.535Z,109.20
2023-01-13T12:30:51.167Z,215.80
2023-01-13T12:36:21.636Z,173.30
2023-01-13T12:42:05.834Z,106.30
2023-01-13T12:47:39.362Z,131.30
2023-01-13T12:52:46.300Z,59.90
2023-01-13T12:58:03.265Z,88.90
2023-01-13T13:03:12.878Z,93.20
2023-01-13T13:08:38.119Z,123.00
2023-01-13T13:13:49.440Z,147.90
2023-01-13T13:19:20.384Z,114.60
2023-01-13T13:24:25.739Z,83.10
2023-01-13T13:29:53.751Z,128.00
2023-01-13T13:35:19.880Z,69.20
2023-01-13T13:40:43.445Z,120.80
2023-01-13T13:46:11.132Z,230.90
2023-01-13T13:51:46.725Z,200.60
2023-01-13T13:56:51.732Z,275.60
2023-01-13T14:02:04.100Z,114.50
2023-01-13T14:07:21.638Z,123.60
2023-01-13T14:12:28.032Z,107.80
2023-01-13T14:17:32.021Z,191.80
2023-01-13T14:22:37.699Z,222.50
2023-01-13T14:27:47.351Z,193.90
2023-01-13T14:32:58.118Z,75.90
2023-01-13T14:38:13.627Z,134.10
2023-01-13T14:43:24.995Z,141.10
2023-01-13T14:48:36.938Z,148.90
2023-01-13T14:53:47.645Z,115.70
2023-01-13T14:58:51.314Z,221.20
2023-01-13T15:03:55.985Z,115.90
2023-01-13T15:08:59.804Z,92.80
2023-01-13T15:14:11.817Z,85.80
2023-01-13T15:19:15.604Z,85.70
2023-01-13T15:24:19.290Z,111.90
2023-01-13T15:29:24.470Z,79.90
2023-01-13T15:34:28.425Z,99.00
2023-01-13T15:39:32.327Z,168.90
2023-01-13T15:44:54.745Z,138.80
2023-01-13T15:49:58.699Z,98.80
2023-01-13T15:55:02.407Z,111.00
2023-01-13T16:00:22.072Z,280.70
2023-01-13T16:05:26.582Z,189.20
2023-01-13T16:10:30.402Z,197.40
2023-01-13T16:15:34.229Z,161.90
2023-01-13T16:20:37.945Z,105.40
2023-01-13T16:25:45.243Z,157.60
2023-01-13T16:30:49.390Z,229.00
2023-01-13T16:36:10.934Z,224.70
2023-01-13T16:41:16.608Z,90.50
2023-01-13T16:46:26.388Z,86.80
2023-01-13T16:51:30.253Z,86.50
2023-01-13T16:56:37.313Z,100.30
2023-01-13T17:01:43.823Z,90.40
2023-01-13T17:07:07.118Z,110.20
2023-01-13T17:12:12.179Z,158.70
2023-01-13T17:17:28.878Z,108.20
2023-01-13T17:22:33.126Z,84.40
2023-01-13T17:27:37.275Z,97.30
2023-01-13T17:32:42.300Z,94.50
2023-01-13T17:37:46.415Z,81.80
2023-01-13T17:42:50.280Z,102.90
2023-01-13T17:48:00.417Z,76.10
2023-01-13T17:53:04.091Z,47.40
2023-01-13T17:58:08.969Z,102.90
2023-01-13T18:03:13.145Z,110.50
2023-01-13T18:08:17.620Z,119.40
2023-01-13T18:13:21.271Z,77.30
2023-01-13T18:18:24.965Z,127.00
2023-01-13T18:23:47.442Z,125.10
2023-01-13T18:28:51.280Z,63.90
2023-01-13T18:33:55.337Z,71.40
2023-01-13T18:38:59.080Z,118.30
2023-01-13T18:44:04.301Z,88.20
2023-01-13T18:49:08.234Z,105.10
2023-01-13T18:54:12.487Z,103.10
2023-01-13T18:59:18.124Z,118.90
2023-01-13T19:04:23.893Z,208.50
2023-01-13T19:09:31.802Z,114.80
2023-01-13T19:14:38.420Z,109.30
2023-01-13T19:19:49.428Z,97.30
2023-01-13T19:24:54.350Z,74.90
2023-01-13T19:30:01.889Z,127.60
2023-01-13T19:35:08.183Z,60.10
2023-01-13T19:40:16.172Z,59.50
2023-01-13T19:45:31.709Z,57.40
2023-01-13T19:50:40.276Z,80.30
2023-01-13T19:55:48.858Z,51.30
2023-01-13T20:00:54.837Z,110.50
2023-01-13T20:06:10.613Z,127.60
2023-01-13T20:11:33.709Z,91.60
2023-01-13T20:16:37.798Z,126.80
2023-01-13T20:21:43.830Z,79.30
2023-01-13T20:26:47.814Z,94.80
2023-01-13T20:31:51.929Z,96.50
2023-01-13T20:36:56.274Z,88.70
2023-01-13T20:42:18.782Z,120.20
2023-01-13T20:47:23.571Z,199.50
2023-01-13T20:52:29.155Z,112.80
2023-01-13T20:57:33.276Z,136.20
2023-01-13T21:02:38.976Z,108.70
2023-01-13T21:07:42.902Z,170.00
2023-01-13T21:13:05.818Z,132.20
2023-01-13T21:18:28.183Z,135.40
2023-01-13T21:23:32.097Z,93.00
2023-01-13T21:28:37.238Z,131.60
2023-01-13T21:33:41.109Z,110.00
2023-01-13T21:38:44.998Z,114.40
2023-01-13T21:44:07.656Z,136.30
2023-01-13T21:49:11.884Z,95.00
2023-01-13T21:54:15.614Z,99.40
2023-01-13T21:59:20.164Z,105.30
2023-01-13T22:04:23.902Z,114.20
2023-01-13T22:09:27.636Z,71.80
2023-01-13T22:14:31.501Z,129.90
2023-01-13T22:19:39.503Z,105.20
2023-01-13T22:24:44.313Z,57.60
2023-01-13T22:29:50.084Z,54.80
2023-01-13T22:34:53.847Z,66.40
2023-01-13T22:39:57.528Z,83.60
2023-01-13T22:45:01.367Z,60.40
2023-01-13T22:50:07.863Z,45.80
2023-01-13T22:55:11.725Z,38.70
2023-01-13T23:00:19.461Z,33.60
2023-01-13T23:05:23.522Z,32.50
2023-01-13T23:10:27.329Z,32.80
2023-01-13T23:15:31.436Z,35.80
2023-01-13T23:20:35.301Z,37.80
2023-01-13T23:25:39.090Z,28.20
2023-01-13T23:30:42.720Z,32.60
2023-01-13T23:36:19.389Z,27.80
2023-01-13T23:41:26.176Z,20.80
2023-01-13T23:46:33.499Z,15.30
2023-01-13T23:51:37.443Z,22.20
2023-01-13T23:56:41.348Z,25.40
